createdAt,value
2017-12-13T00:00:53.230Z,70.80
2017-12-13T00:03:20.712Z,70.70
2017-12-13T00:05:48.182Z,70.90
2017-12-13T00:08:15.670Z,71.00
2017-12-13T00:10:43.926Z,71.10
2017-12-13T00:13:11.426Z,71.10
2017-12-13T00:15:38.903Z,71.10
2017-12-13T00:18:07.131Z,71.00
2017-12-13T00:20:34.615Z,71.00
2017-12-13T00:23:02.847Z,71.00
2017-12-13T00:25:30.341Z,71.00
2017-12-13T00:27:57.816Z,71.10
2017-12-13T00:30:26.067Z,71.30
2017-12-13T00:32:53.530Z,71.20
2017-12-13T00:35:21.038Z,71.30
2017-12-13T00:37:49.289Z,71.30
2017-12-13T00:40:16.809Z,71.30
2017-12-13T00:42:44.301Z,71.30
2017-12-13T00:45:11.786Z,71.30
2017-12-13T00:47:40.041Z,72.00
2017-12-13T00:50:07.519Z,71.30
2017-12-13T00:52:34.993Z,71.20
2017-12-13T00:55:02.476Z,71.20
2017-12-13T00:57:30.707Z,71.30
2017-12-13T00:59:58.181Z,71.20
2017-12-13T01:02:25.644Z,71.50
2017-12-13T01:04:53.117Z,71.50
2017-12-13T01:07:20.595Z,71.50
2017-12-13T01:09:48.851Z,71.50
2017-12-13T01:14:50.243Z,71.40
2017-12-13T01:17:18.476Z,71.40
2017-12-13T01:19:45.953Z,71.40
2017-12-13T01:22:13.448Z,71.50
2017-12-13T01:24:41.688Z,71.60
2017-12-13T01:27:09.175Z,71.60
2017-12-13T01:29:36.639Z,71.70
2017-12-13T01:32:04.118Z,71.60
2017-12-13T01:34:32.371Z,71.70
2017-12-13T01:36:59.857Z,71.70
2017-12-13T01:39:27.318Z,71.70
2017-12-13T01:41:55.569Z,71.70
2017-12-13T01:44:23.046Z,71.60
2017-12-13T01:46:50.526Z,71.90
2017-12-13T01:49:17.991Z,71.80
2017-12-13T01:51:46.253Z,71.90
2017-12-13T01:54:13.723Z,71.90
2017-12-13T01:56:41.203Z,71.80
2017-12-13T01:59:09.438Z,71.90
2017-12-13T02:01:36.929Z,71.90
2017-12-13T02:04:04.399Z,71.90
2017-12-13T02:06:31.875Z,71.90
2017-12-13T02:08:59.356Z,72.10
2017-12-13T02:11:26.841Z,72.10
2017-12-13T02:13:54.311Z,72.10
2017-12-13T02:16:21.796Z,72.00
2017-12-13T02:18:49.257Z,71.90
2017-12-13T02:21:16.759Z,71.90
2017-12-13T02:23:44.248Z,71.90
2017-12-13T02:26:11.769Z,71.90
2017-12-13T02:28:40.025Z,71.90
2017-12-13T02:31:07.494Z,71.70
2017-12-13T02:33:34.983Z,71.70
2017-12-13T02:36:03.231Z,71.70
2017-12-13T02:38:30.706Z,71.70
2017-12-13T02:41:01.076Z,71.90
2017-12-13T02:43:28.550Z,71.80
2017-12-13T02:45:56.017Z,71.70
2017-12-13T02:48:23.498Z,71.70
2017-12-13T02:50:50.979Z,71.50
2017-12-13T02:53:18.477Z,71.50
2017-12-13T02:55:48.770Z,71.40
2017-12-13T02:58:16.285Z,71.50
2017-12-13T03:00:43.766Z,71.50
2017-12-13T03:03:11.229Z,71.50
2017-12-13T03:05:38.696Z,71.40
2017-12-13T03:08:06.189Z,71.50
2017-12-13T03:10:34.421Z,71.60
2017-12-13T03:13:01.948Z,71.60
2017-12-13T03:15:29.401Z,71.50
2017-12-13T03:17:56.906Z,71.50
2017-12-13T03:20:24.396Z,71.50
2017-12-13T03:22:51.894Z,71.50
2017-12-13T03:25:19.376Z,71.50
2017-12-13T03:27:46.874Z,71.40
2017-12-13T03:30:14.345Z,71.50
2017-12-13T03:32:41.866Z,72.20
2017-12-13T03:35:10.066Z,71.40
2017-12-13T03:37:37.534Z,71.40
2017-12-13T03:40:05.008Z,71.60
2017-12-13T03:42:32.487Z,71.60
2017-12-13T03:45:00.735Z,71.90
2017-12-13T03:47:28.210Z,71.80
2017-12-13T03:49:55.687Z,71.70
2017-12-13T03:52:23.171Z,71.60
2017-12-13T03:54:51.409Z,71.60
2017-12-13T03:57:18.888Z,71.60
2017-12-13T03:59:46.343Z,72.30
2017-12-13T04:02:13.822Z,71.60
2017-12-13T04:04:41.310Z,71.50
2017-12-13T04:07:08.775Z,71.00
2017-12-13T04:09:36.251Z,71.20
2017-12-13T04:12:03.724Z,71.00
2017-12-13T04:14:31.193Z,71.10
2017-12-13T04:16:58.683Z,71.00
2017-12-13T04:19:26.136Z,70.90
2017-12-13T04:21:53.610Z,70.90
2017-12-13T04:24:21.098Z,70.80
2017-12-13T04:26:49.326Z,70.70
2017-12-13T04:29:16.810Z,70.70
2017-12-13T04:31:44.277Z,70.70
2017-12-13T04:34:11.760Z,70.70
2017-12-13T04:36:39.999Z,70.70
2017-12-13T04:39:07.563Z,70.70
2017-12-13T04:41:35.050Z,70.60
2017-12-13T04:44:02.542Z,70.60
2017-12-13T04:46:30.789Z,70.60
2017-12-13T04:48:58.287Z,70.50
2017-12-13T04:51:26.520Z,70.40
2017-12-13T04:53:54.002Z,70.40
2017-12-13T04:56:21.481Z,70.40
2017-12-13T04:58:49.733Z,70.10
2017-12-13T05:01:17.192Z,70.10
2017-12-13T05:03:44.717Z,70.10
2017-12-13T05:06:12.184Z,70.20
2017-12-13T05:08:39.677Z,70.20
2017-12-13T05:11:07.160Z,70.20
2017-12-13T05:13:34.640Z,70.20
2017-12-13T05:16:02.877Z,70.20
2017-12-13T05:18:30.341Z,70.20
2017-12-13T05:20:57.829Z,70.20
2017-12-13T05:23:25.301Z,70.00
2017-12-13T05:25:52.811Z,69.80
2017-12-13T05:28:21.060Z,69.70
2017-12-13T05:30:49.302Z,69.70
2017-12-13T05:33:16.774Z,69.70
2017-12-13T05:35:44.268Z,69.50
2017-12-13T05:38:12.500Z,69.50
2017-12-13T05:40:39.986Z,69.50
2017-12-13T05:43:07.482Z,69.50
2017-12-13T05:45:34.967Z,69.70
2017-12-13T05:48:02.448Z,69.50
2017-12-13T05:50:29.941Z,69.50
2017-12-13T05:52:57.400Z,69.40
2017-12-13T05:55:24.915Z,69.60
2017-12-13T05:57:52.658Z,69.40
2017-12-13T06:00:20.964Z,69.50
2017-12-13T06:02:48.432Z,69.40
2017-12-13T06:05:15.907Z,69.50
2017-12-13T06:07:43.380Z,69.50
2017-12-13T06:10:10.869Z,69.40
2017-12-13T06:12:38.334Z,69.50
2017-12-13T06:15:06.589Z,69.70
2017-12-13T06:17:34.071Z,69.50
2017-12-13T06:20:01.554Z,69.50
2017-12-13T06:22:29.779Z,69.50
2017-12-13T06:24:57.262Z,69.50
2017-12-13T06:27:24.734Z,69.50
2017-12-13T06:29:52.187Z,69.40
2017-12-13T06:32:19.667Z,69.50
2017-12-13T06:34:47.132Z,69.30
2017-12-13T06:37:15.372Z,69.90
2017-12-13T06:39:42.848Z,69.30
2017-12-13T06:42:10.357Z,69.20
2017-12-13T06:44:38.598Z,69.20
2017-12-13T06:47:06.068Z,69.10
2017-12-13T06:49:33.559Z,69.20
2017-12-13T06:52:01.789Z,69.30
2017-12-13T06:54:29.266Z,69.50
2017-12-13T06:56:56.760Z,69.40
2017-12-13T06:59:25.041Z,69.50
2017-12-13T07:01:53.278Z,69.40
2017-12-13T07:04:20.789Z,70.10
2017-12-13T07:06:49.040Z,69.40
2017-12-13T07:09:16.511Z,69.40
2017-12-13T07:11:44.016Z,69.40
2017-12-13T07:14:11.477Z,69.30
2017-12-13T07:16:39.165Z,69.10
2017-12-13T07:19:06.641Z,69.10
2017-12-13T07:21:34.111Z,69.10
2017-12-13T07:24:01.608Z,68.90
2017-12-13T07:26:29.842Z,68.90
2017-12-13T07:28:57.324Z,68.80
2017-12-13T07:31:24.806Z,68.80
2017-12-13T07:33:53.075Z,68.90
2017-12-13T07:36:20.559Z,68.90
2017-12-13T07:38:48.796Z,69.10
2017-12-13T07:41:16.275Z,69.10
2017-12-13T07:43:43.759Z,69.20
2017-12-13T07:46:12.019Z,69.30
2017-12-13T07:48:39.481Z,69.20
2017-12-13T07:51:06.977Z,69.20
2017-12-13T07:53:34.451Z,69.20
2017-12-13T07:56:01.928Z,69.20
2017-12-13T07:58:29.408Z,69.20
2017-12-13T08:00:56.891Z,69.00
2017-12-13T08:03:24.377Z,68.80
2017-12-13T08:05:52.623Z,68.60
2017-12-13T08:08:20.118Z,68.50
2017-12-13T08:10:48.373Z,68.40
2017-12-13T08:13:15.853Z,68.20
2017-12-13T08:15:43.350Z,68.20
2017-12-13T08:18:10.829Z,68.60
2017-12-13T08:20:38.318Z,67.80
2017-12-13T08:23:05.787Z,67.60
2017-12-13T08:25:33.298Z,67.80
2017-12-13T08:28:00.777Z,67.80
2017-12-13T08:30:28.262Z,67.80
2017-12-13T08:32:55.735Z,67.70
2017-12-13T08:35:23.238Z,67.70
2017-12-13T08:37:51.479Z,67.90
2017-12-13T08:40:18.970Z,67.80
2017-12-13T08:42:46.430Z,68.00
2017-12-13T08:45:13.912Z,68.10
2017-12-13T08:47:41.389Z,67.90
2017-12-13T08:50:08.851Z,67.90
2017-12-13T08:52:36.346Z,68.10
2017-12-13T08:55:03.828Z,68.00
2017-12-13T08:57:31.315Z,68.00
2017-12-13T08:59:59.553Z,67.60
2017-12-13T09:02:27.037Z,67.60
2017-12-13T09:04:54.524Z,67.40
2017-12-13T09:07:22.764Z,67.20
2017-12-13T09:09:50.239Z,67.20
2017-12-13T09:12:17.701Z,67.00
2017-12-13T09:14:45.205Z,66.70
2017-12-13T09:17:12.687Z,66.50
2017-12-13T09:19:40.157Z,66.60
2017-12-13T09:22:07.647Z,66.20
2017-12-13T09:24:35.121Z,66.00
2017-12-13T09:27:02.628Z,65.90
2017-12-13T09:29:30.107Z,65.20
2017-12-13T09:31:57.590Z,65.10
2017-12-13T09:34:25.061Z,64.70
2017-12-13T09:36:52.535Z,64.30
2017-12-13T09:39:20.037Z,64.00
2017-12-13T09:41:47.512Z,63.40
2017-12-13T09:44:15.015Z,62.60
2017-12-13T09:46:42.482Z,62.50
2017-12-13T09:49:09.988Z,61.70
2017-12-13T09:51:37.455Z,61.80
2017-12-13T09:54:04.945Z,61.20
2017-12-13T09:56:32.416Z,60.70
2017-12-13T09:58:59.889Z,60.80
2017-12-13T10:01:27.390Z,60.40
2017-12-13T10:03:55.627Z,60.20
2017-12-13T10:06:23.141Z,60.20
2017-12-13T10:08:51.375Z,60.00
2017-12-13T10:11:18.848Z,59.90
2017-12-13T10:13:46.331Z,59.40
2017-12-13T10:16:14.571Z,59.50
2017-12-13T10:18:42.053Z,59.40
2017-12-13T10:21:09.514Z,58.70
2017-12-13T10:23:37.010Z,58.80
2017-12-13T10:26:05.250Z,58.80
2017-12-13T10:28:32.726Z,58.80
2017-12-13T10:31:00.211Z,58.70
2017-12-13T10:33:28.455Z,58.90
2017-12-13T10:35:55.937Z,59.00
2017-12-13T10:38:23.406Z,58.60
2017-12-13T10:40:51.665Z,59.30
2017-12-13T10:43:19.147Z,59.30
2017-12-13T10:45:46.618Z,59.50
2017-12-13T10:48:14.862Z,59.50
2017-12-13T10:50:42.346Z,59.50
2017-12-13T10:53:09.833Z,59.50
2017-12-13T10:55:38.066Z,59.20
2017-12-13T10:58:05.574Z,59.20
2017-12-13T11:00:33.818Z,59.40
2017-12-13T11:03:01.303Z,59.40
2017-12-13T11:05:28.786Z,59.10
2017-12-13T11:07:57.027Z,59.10
2017-12-13T11:10:24.509Z,59.00
2017-12-13T11:12:52.767Z,59.00
2017-12-13T11:15:20.258Z,59.00
2017-12-13T11:17:47.733Z,59.20
2017-12-13T11:20:15.980Z,58.70
2017-12-13T11:22:43.469Z,58.70
2017-12-13T11:25:10.947Z,58.40
2017-12-13T11:27:38.449Z,58.60
2017-12-13T11:30:05.919Z,58.50
2017-12-13T11:32:33.393Z,58.70
2017-12-13T11:35:00.854Z,58.60
2017-12-13T11:37:28.325Z,58.40
2017-12-13T11:39:55.812Z,57.90
2017-12-13T11:42:24.043Z,58.20
2017-12-13T11:44:51.531Z,58.20
2017-12-13T11:47:19.005Z,57.80
2017-12-13T11:49:47.260Z,58.60
2017-12-13T11:52:14.748Z,57.80
2017-12-13T11:54:42.992Z,57.80
2017-12-13T11:57:10.460Z,57.70
2017-12-13T11:59:37.934Z,57.80
2017-12-13T12:02:05.406Z,58.00
2017-12-13T12:04:32.887Z,58.20
2017-12-13T12:07:01.131Z,57.50
2017-12-13T12:09:28.605Z,57.50
2017-12-13T12:11:56.079Z,57.40
2017-12-13T12:14:23.586Z,57.50
2017-12-13T12:16:51.052Z,57.00
2017-12-13T12:19:18.528Z,57.90
2017-12-13T12:21:45.996Z,58.30
2017-12-13T12:24:13.462Z,58.40
2017-12-13T12:26:40.945Z,58.00
2017-12-13T12:29:08.415Z,58.00
2017-12-13T12:31:35.918Z,57.80
2017-12-13T12:34:03.363Z,57.90
2017-12-13T12:36:31.616Z,58.70
2017-12-13T12:38:59.085Z,58.70
2017-12-13T12:41:26.557Z,58.90
2017-12-13T12:43:54.786Z,58.30
2017-12-13T12:46:22.274Z,58.30
2017-12-13T12:48:49.781Z,58.00
2017-12-13T12:51:17.266Z,58.10
2017-12-13T12:53:44.728Z,58.40
2017-12-13T12:56:12.213Z,58.30
2017-12-13T12:58:39.673Z,58.30
2017-12-13T13:01:07.157Z,58.30
2017-12-13T13:03:34.608Z,58.10
2017-12-13T13:06:02.087Z,57.90
2017-12-13T13:08:29.554Z,57.40
2017-12-13T13:10:57.035Z,57.60
2017-12-13T13:13:25.268Z,57.80
2017-12-13T13:15:52.797Z,57.80
2017-12-13T13:18:20.261Z,57.90
2017-12-13T13:20:47.803Z,57.80
2017-12-13T13:23:16.093Z,57.80
2017-12-13T13:25:44.320Z,57.60
2017-12-13T13:28:11.803Z,57.50
2017-12-13T13:30:39.287Z,57.70
2017-12-13T13:33:07.543Z,57.50
2017-12-13T13:35:35.009Z,57.60
2017-12-13T13:38:02.488Z,57.70
2017-12-13T13:40:30.716Z,57.60
2017-12-13T13:42:58.196Z,57.60
2017-12-13T13:45:25.653Z,57.50
2017-12-13T13:47:53.170Z,57.70
2017-12-13T13:50:21.399Z,59.00
2017-12-13T13:52:48.928Z,58.90
2017-12-13T13:55:16.396Z,60.00
2017-12-13T13:57:43.873Z,60.30
2017-12-13T14:00:11.352Z,60.60
2017-12-13T14:02:38.864Z,61.50
2017-12-13T14:05:07.139Z,62.80
2017-12-13T14:07:35.420Z,63.30
2017-12-13T14:10:03.651Z,63.80
2017-12-13T14:12:31.136Z,63.80
2017-12-13T14:14:58.668Z,64.50
2017-12-13T14:17:26.154Z,65.10
2017-12-13T14:19:53.667Z,65.70
2017-12-13T14:22:21.960Z,65.90
2017-12-13T14:24:50.256Z,66.20
2017-12-13T14:27:17.723Z,66.00
2017-12-13T14:29:45.197Z,66.30
2017-12-13T14:32:12.668Z,66.00
2017-12-13T14:34:40.197Z,66.00
2017-12-13T14:37:07.687Z,66.00
2017-12-13T14:39:35.211Z,66.00
2017-12-13T14:42:02.672Z,66.00
2017-12-13T14:44:30.150Z,66.30
2017-12-13T14:46:57.647Z,66.60
2017-12-13T14:49:25.118Z,66.90
2017-12-13T14:51:52.640Z,67.80
2017-12-13T14:54:20.120Z,67.20
2017-12-13T14:56:47.643Z,67.40
2017-12-13T14:59:15.129Z,67.60
2017-12-13T15:01:42.600Z,67.80
2017-12-13T15:04:10.085Z,68.20
2017-12-13T15:06:37.550Z,68.70
2017-12-13T15:09:05.017Z,69.10
2017-12-13T15:11:32.524Z,69.60
2017-12-13T15:14:00.020Z,69.80
2017-12-13T15:16:27.527Z,69.90
2017-12-13T15:18:55.043Z,70.00
2017-12-13T15:21:23.310Z,70.00
2017-12-13T15:23:50.791Z,69.90
2017-12-13T15:26:18.265Z,70.10
2017-12-13T15:28:45.749Z,70.20
2017-12-13T15:31:13.230Z,70.40
2017-12-13T15:33:41.477Z,70.60
2017-12-13T15:36:08.933Z,70.60
2017-12-13T15:38:36.411Z,70.70
2017-12-13T15:41:03.877Z,70.90
2017-12-13T15:43:31.353Z,71.00
2017-12-13T15:45:59.588Z,71.50
2017-12-13T15:48:27.098Z,71.60
2017-12-13T15:50:54.617Z,71.90
2017-12-13T15:53:22.083Z,72.20
2017-12-13T15:55:49.618Z,72.50
2017-12-13T15:58:17.106Z,72.90
2017-12-13T16:00:44.583Z,73.20
2017-12-13T16:03:12.094Z,73.40
2017-12-13T16:05:40.367Z,73.90
2017-12-13T16:08:08.598Z,74.00
2017-12-13T16:10:36.129Z,74.00
2017-12-13T16:13:03.646Z,74.30
2017-12-13T16:15:31.176Z,74.40
2017-12-13T16:17:58.667Z,74.50
2017-12-13T16:20:26.169Z,74.50
2017-12-13T16:22:54.405Z,74.70
2017-12-13T16:25:21.930Z,74.70
2017-12-13T16:27:49.422Z,74.70
2017-12-13T16:30:16.931Z,74.90
2017-12-13T16:32:44.421Z,75.00
2017-12-13T16:35:11.931Z,75.20
2017-12-13T16:37:39.462Z,75.20
2017-12-13T16:40:06.975Z,75.20
2017-12-13T16:42:34.475Z,75.20
2017-12-13T16:45:01.964Z,75.30
2017-12-13T16:47:29.441Z,75.60
2017-12-13T16:49:56.914Z,75.70
2017-12-13T16:52:24.428Z,75.80
2017-12-13T16:54:52.106Z,75.80
2017-12-13T16:57:19.636Z,76.00
2017-12-13T16:59:47.939Z,76.70
2017-12-13T17:02:15.398Z,76.00
2017-12-13T17:04:43.670Z,76.30
2017-12-13T17:07:11.951Z,76.50
2017-12-13T17:09:40.354Z,76.80
2017-12-13T17:12:09.121Z,76.70
2017-12-13T17:14:36.741Z,76.60
2017-12-13T17:17:04.250Z,76.70
2017-12-13T17:19:32.522Z,76.60
2017-12-13T17:22:00.798Z,76.60
2017-12-13T17:24:28.270Z,76.60
2017-12-13T17:26:56.575Z,76.60
2017-12-13T17:29:24.092Z,76.60
2017-12-13T17:31:52.341Z,76.70
2017-12-13T17:34:19.798Z,76.60
2017-12-13T17:36:47.267Z,76.70
2017-12-13T17:39:14.749Z,76.70
2017-12-13T17:41:43.061Z,76.50
2017-12-13T17:44:11.356Z,76.50
2017-12-13T17:46:39.605Z,76.70
2017-12-13T17:49:07.108Z,76.70
2017-12-13T17:51:34.615Z,76.70
2017-12-13T17:54:02.128Z,76.70
2017-12-13T17:56:30.404Z,76.70
2017-12-13T17:58:58.689Z,76.80
2017-12-13T18:01:26.950Z,76.70
2017-12-13T18:03:54.454Z,76.70
2017-12-13T18:06:21.956Z,76.70
2017-12-13T18:08:49.428Z,76.90
2017-12-13T18:11:17.835Z,76.90
2017-12-13T18:13:46.074Z,77.00
2017-12-13T18:16:14.394Z,76.90
2017-12-13T18:18:42.665Z,76.80
2017-12-13T18:21:10.170Z,76.70
2017-12-13T18:23:37.633Z,76.70
2017-12-13T18:26:05.114Z,76.90
2017-12-13T18:28:32.630Z,76.80
2017-12-13T18:31:00.885Z,76.70
2017-12-13T18:33:28.377Z,76.70
2017-12-13T18:35:55.900Z,76.90
2017-12-13T18:38:23.456Z,76.70
2017-12-13T18:40:50.960Z,76.80
2017-12-13T18:43:19.234Z,76.80
2017-12-13T18:45:46.728Z,76.90
2017-12-13T18:48:14.236Z,77.60
2017-12-13T18:50:41.772Z,76.70
2017-12-13T18:53:09.297Z,76.60
2017-12-13T18:55:37.560Z,77.40
2017-12-13T18:58:05.882Z,76.80
2017-12-13T19:00:33.401Z,76.80
2017-12-13T19:03:00.922Z,76.80
2017-12-13T19:05:28.427Z,76.60
2017-12-13T19:07:55.886Z,76.80
2017-12-13T19:10:23.384Z,76.70
2017-12-13T19:12:51.670Z,77.00
2017-12-13T19:15:19.132Z,77.00
2017-12-13T19:17:47.404Z,77.00
2017-12-13T19:20:15.695Z,77.10
2017-12-13T19:22:43.979Z,77.10
2017-12-13T19:25:11.493Z,77.10
2017-12-13T19:27:39.004Z,76.90
2017-12-13T19:30:06.526Z,77.00
2017-12-13T19:32:34.045Z,77.10
2017-12-13T19:35:01.493Z,76.90
2017-12-13T19:37:29.011Z,77.00
2017-12-13T19:39:56.499Z,77.20
2017-12-13T19:42:24.026Z,77.30
2017-12-13T19:44:51.599Z,77.00
2017-12-13T19:47:19.192Z,77.40
2017-12-13T19:49:47.732Z,77.70
2017-12-13T19:52:16.497Z,78.40
2017-12-13T19:54:44.190Z,77.70
2017-12-13T19:57:11.739Z,77.70
2017-12-13T19:59:39.987Z,78.10
2017-12-13T20:02:08.148Z,78.00
2017-12-13T20:04:36.033Z,78.30
2017-12-13T20:07:03.618Z,78.90
2017-12-13T20:09:31.939Z,79.30
2017-12-13T20:11:59.482Z,79.30
2017-12-13T20:14:27.000Z,79.30
2017-12-13T20:16:54.765Z,79.50
2017-12-13T20:19:22.386Z,79.50
2017-12-13T20:21:50.093Z,80.20
2017-12-13T20:24:17.624Z,79.30
2017-12-13T20:26:45.140Z,79.30
2017-12-13T20:29:12.663Z,79.30
2017-12-13T20:31:41.258Z,79.20
2017-12-13T20:34:09.076Z,79.30
2017-12-13T20:36:36.601Z,79.30
2017-12-13T20:39:04.126Z,79.20
2017-12-13T20:41:31.574Z,79.20
2017-12-13T20:43:59.097Z,79.10
2017-12-13T20:46:26.550Z,79.10
2017-12-13T20:48:54.026Z,79.10
2017-12-13T20:51:21.539Z,79.10
2017-12-13T20:53:49.072Z,79.30
2017-12-13T20:56:17.367Z,79.70
2017-12-13T20:58:45.653Z,80.00
2017-12-13T21:01:13.202Z,79.90
2017-12-13T21:03:41.459Z,80.60
2017-12-13T21:06:08.935Z,80.60
2017-12-13T21:08:37.211Z,81.00
2017-12-13T21:11:04.677Z,81.00
2017-12-13T21:13:32.982Z,81.50
2017-12-13T21:16:01.269Z,81.60
2017-12-13T21:18:28.782Z,81.50
2017-12-13T21:20:57.280Z,81.80
2017-12-13T21:23:24.770Z,81.70
2017-12-13T21:25:53.066Z,82.00
2017-12-13T21:28:20.526Z,81.90
2017-12-13T21:30:48.048Z,81.80
2017-12-13T21:33:15.544Z,81.90
2017-12-13T21:35:43.077Z,81.90
2017-12-13T21:38:10.580Z,82.00
2017-12-13T21:40:38.066Z,82.00
2017-12-13T21:43:05.574Z,82.20
2017-12-13T21:45:33.105Z,82.10
2017-12-13T21:48:00.616Z,82.00
2017-12-13T21:50:28.897Z,82.10
2017-12-13T21:52:57.179Z,82.30
2017-12-13T21:55:25.408Z,82.40
2017-12-13T21:57:52.941Z,82.40
2017-12-13T22:00:20.456Z,82.40
2017-12-13T22:02:47.939Z,82.50
2017-12-13T22:05:16.246Z,82.60
2017-12-13T22:07:44.540Z,82.60
2017-12-13T22:10:12.053Z,82.60
2017-12-13T22:12:39.568Z,82.60
2017-12-13T22:15:07.029Z,82.70
2017-12-13T22:17:34.592Z,82.60
2017-12-13T22:20:02.092Z,82.70
2017-12-13T22:22:29.623Z,82.80
2017-12-13T22:24:57.158Z,82.70
2017-12-13T22:27:25.451Z,82.90
2017-12-13T22:29:52.954Z,82.80
2017-12-13T22:32:20.455Z,82.80
2017-12-13T22:34:48.007Z,82.90
2017-12-13T22:37:15.551Z,83.60
2017-12-13T22:39:43.071Z,83.10
2017-12-13T22:42:10.574Z,83.20
2017-12-13T22:44:38.105Z,83.20
2017-12-13T22:47:05.607Z,83.40
2017-12-13T22:49:33.115Z,83.30
2017-12-13T22:52:01.399Z,83.50
2017-12-13T22:54:29.710Z,83.70
2017-12-13T22:56:57.226Z,83.50
2017-12-13T22:59:24.763Z,83.70
2017-12-13T23:01:52.225Z,83.80
2017-12-13T23:04:20.201Z,83.60
2017-12-13T23:06:47.702Z,83.70
2017-12-13T23:09:15.169Z,83.60
2017-12-13T23:11:42.690Z,83.70
2017-12-13T23:14:10.208Z,83.80
2017-12-13T23:16:38.433Z,83.70
2017-12-13T23:19:05.960Z,83.60
2017-12-13T23:21:34.186Z,83.60
2017-12-13T23:24:01.664Z,83.60
2017-12-13T23:26:29.146Z,83.80
2017-12-13T23:28:56.630Z,83.80
2017-12-13T23:31:24.858Z,83.80
2017-12-13T23:33:52.348Z,83.80
2017-12-13T23:36:19.806Z,83.90
2017-12-13T23:38:47.300Z,83.90
2017-12-13T23:41:15.526Z,83.90
2017-12-13T23:43:43.003Z,83.80
2017-12-13T23:46:10.488Z,84.30
2017-12-13T23:48:37.965Z,83.80
2017-12-13T23:51:06.209Z,84.10
2017-12-13T23:53:33.675Z,84.00
2017-12-13T23:56:01.153Z,84.30
2017-12-13T23:58:28.632Z,84.80
